Finn Rock, Oregon
Current Conditions -  °F | °C
As of 4:37 AM on Tuesday 27 Jan 2015 (Local Time) from KEUG Reporting Station
Haze Haze  
Wind Chill: 45°   Ceiling: 200
Heat Index: 45°   Visibility: 0.25mi
Dew Point: 43°   Wind: 0mph
Humidity: 93%   Direction: NA
Pressure: 30.03"   Gusts: NA
Location:  44.1366°N, 122.448°W
Report Text: KEUG 271237Z AUTO 00000KT 1/4SM R16R/P6000FT BR BKN002 OVC011 07/06 A3003 RMK AO2 SFC VIS 6 T00720061
Loading
Personal Weather Stations






























Interactive Weather Map New forecast layout! Learn more

10-Day Weather Forecast

Advertisements
Track Severe Weather on mobile